createdAt,value
2019-05-30T00:00:35.523Z,47.70
2019-05-30T00:03:02.302Z,47.80
2019-05-30T00:05:28.851Z,47.70
2019-05-30T00:07:56.183Z,47.90
2019-05-30T00:10:22.474Z,48.20
2019-05-30T00:12:48.908Z,48.20
2019-05-30T00:15:15.207Z,48.10
2019-05-30T00:17:41.508Z,47.80
2019-05-30T00:20:08.086Z,48.10
2019-05-30T00:22:34.384Z,48.00
2019-05-30T00:25:04.245Z,48.10
2019-05-30T00:27:30.624Z,48.30
2019-05-30T00:29:57.184Z,48.40
2019-05-30T00:32:23.747Z,48.40
2019-05-30T00:34:50.053Z,48.20
2019-05-30T00:37:16.458Z,48.30
2019-05-30T00:39:42.765Z,48.60
2019-05-30T00:42:09.167Z,48.60
2019-05-30T00:44:35.603Z,48.90
2019-05-30T00:47:02.441Z,48.60
2019-05-30T00:49:29.018Z,48.60
2019-05-30T00:51:56.418Z,48.70
2019-05-30T00:54:22.843Z,48.70
2019-05-30T00:56:49.398Z,49.20
2019-05-30T00:59:15.664Z,49.10
2019-05-30T01:01:41.963Z,49.10
2019-05-30T01:04:08.371Z,49.00
2019-05-30T01:06:34.680Z,49.30
2019-05-30T01:09:01.233Z,48.90
2019-05-30T01:11:27.707Z,48.90
2019-05-30T01:13:54.008Z,48.80
2019-05-30T01:16:20.311Z,49.30
2019-05-30T01:18:46.615Z,49.30
2019-05-30T01:21:12.951Z,49.10
2019-05-30T01:23:41.156Z,48.90
2019-05-30T01:26:08.393Z,49.10
2019-05-30T01:28:34.796Z,49.10
2019-05-30T01:31:07.340Z,49.10
2019-05-30T01:33:29.242Z,49.00
2019-05-30T01:35:55.542Z,49.30
2019-05-30T01:38:21.844Z,49.30
2019-05-30T01:40:48.251Z,49.40
2019-05-30T01:43:14.557Z,49.40
2019-05-30T01:45:40.997Z,49.30
2019-05-30T01:48:08.469Z,49.30
2019-05-30T01:50:35.107Z,49.30
2019-05-30T01:53:02.542Z,49.60
2019-05-30T01:55:29.023Z,49.30
2019-05-30T01:57:55.354Z,49.70
2019-05-30T02:00:25.470Z,50.20
2019-05-30T02:02:51.777Z,50.00
2019-05-30T02:05:18.089Z,50.20
2019-05-30T02:07:44.496Z,50.10
2019-05-30T02:10:10.818Z,50.40
2019-05-30T02:12:37.124Z,50.20
2019-05-30T02:15:07.661Z,50.20
2019-05-30T02:17:34.527Z,50.60
2019-05-30T02:20:01.786Z,50.50
2019-05-30T02:22:28.351Z,50.30
2019-05-30T02:24:54.653Z,50.30
2019-05-30T02:27:20.972Z,50.30
2019-05-30T02:29:47.279Z,50.50
2019-05-30T02:32:13.684Z,50.50
2019-05-30T02:34:40.013Z,50.60
2019-05-30T02:37:08.492Z,50.40
2019-05-30T02:39:34.644Z,50.20
2019-05-30T02:42:01.018Z,50.00
2019-05-30T02:44:27.421Z,50.10
2019-05-30T02:46:55.663Z,50.20
2019-05-30T02:49:21.964Z,50.40
2019-05-30T02:51:48.258Z,50.40
2019-05-30T02:54:15.086Z,50.20
2019-05-30T02:56:41.393Z,50.30
2019-05-30T02:59:09.223Z,50.00
2019-05-30T03:02:00.344Z,49.70
2019-05-30T03:04:13.058Z,49.40
2019-05-30T03:06:39.448Z,49.90
2019-05-30T03:09:06.892Z,50.20
2019-05-30T03:11:34.274Z,50.20
2019-05-30T03:14:02.203Z,50.00
2019-05-30T03:16:29.392Z,50.10
2019-05-30T03:18:55.692Z,50.20
2019-05-30T03:21:22.099Z,50.20
2019-05-30T03:23:48.420Z,49.60
2019-05-30T03:26:15.993Z,50.20
2019-05-30T03:28:42.882Z,50.10
2019-05-30T03:31:21.279Z,50.10
2019-05-30T03:33:42.009Z,49.90
2019-05-30T03:36:22.118Z,49.90
2019-05-30T03:38:38.704Z,50.00
2019-05-30T03:41:09.912Z,50.00
2019-05-30T03:43:36.768Z,50.00
2019-05-30T03:46:06.110Z,50.00
2019-05-30T03:48:32.784Z,50.00
2019-05-30T03:50:59.088Z,50.00
2019-05-30T03:53:25.427Z,50.00
2019-05-30T03:55:54.231Z,50.10
2019-05-30T03:58:27.484Z,50.00
2019-05-30T04:00:55.611Z,49.90
2019-05-30T04:03:37.621Z,47.30
2019-05-30T04:06:07.379Z,47.70
2019-05-30T04:08:34.612Z,48.80
2019-05-30T04:11:02.560Z,48.30
2019-05-30T04:13:55.063Z,48.50
2019-05-30T04:16:21.443Z,48.70
2019-05-30T04:18:47.741Z,48.80
2019-05-30T04:21:15.861Z,48.90
2019-05-30T04:23:42.187Z,49.00
2019-05-30T04:26:09.699Z,49.00
2019-05-30T04:28:37.549Z,49.00
2019-05-30T04:31:03.847Z,49.00
2019-05-30T04:33:33.553Z,49.10
2019-05-30T04:35:58.315Z,49.10
2019-05-30T04:38:24.735Z,49.20
2019-05-30T04:40:51.564Z,49.10
2019-05-30T04:43:18.469Z,49.60
2019-05-30T04:45:46.086Z,49.60
2019-05-30T04:48:13.958Z,50.00
2019-05-30T04:50:40.522Z,49.70
2019-05-30T04:53:06.856Z,49.90
2019-05-30T04:55:33.151Z,49.80
2019-05-30T04:57:59.457Z,49.80
2019-05-30T05:00:25.958Z,49.80
2019-05-30T05:02:52.279Z,49.80
2019-05-30T05:05:24.090Z,49.80
2019-05-30T05:07:46.824Z,49.80
2019-05-30T05:10:13.976Z,49.60
2019-05-30T05:12:41.226Z,49.80
2019-05-30T05:15:07.617Z,49.70
2019-05-30T05:17:34.156Z,49.70
2019-05-30T05:20:01.555Z,49.70
2019-05-30T05:22:28.203Z,49.70
2019-05-30T05:24:54.630Z,49.60
2019-05-30T05:27:21.742Z,49.60
2019-05-30T05:29:48.059Z,49.80
2019-05-30T05:32:14.361Z,49.80
2019-05-30T05:34:40.659Z,49.80
2019-05-30T05:37:07.103Z,49.90
2019-05-30T05:39:33.432Z,50.00
2019-05-30T05:41:59.759Z,49.80
2019-05-30T05:44:26.063Z,50.00
2019-05-30T05:46:52.408Z,49.90
2019-05-30T05:49:18.725Z,49.80
2019-05-30T05:51:45.124Z,49.70
2019-05-30T05:54:11.558Z,49.70
2019-05-30T05:56:37.853Z,49.70
2019-05-30T05:59:04.156Z,49.80
2019-05-30T06:01:30.600Z,50.00
2019-05-30T06:04:12.179Z,49.90
2019-05-30T06:06:25.336Z,49.80
2019-05-30T06:08:51.771Z,49.80
2019-05-30T06:11:18.649Z,49.60
2019-05-30T06:13:45.313Z,49.70
2019-05-30T06:16:11.614Z,49.70
2019-05-30T06:18:37.939Z,49.70
2019-05-30T06:21:04.256Z,49.50
2019-05-30T06:23:31.208Z,49.50
2019-05-30T06:25:57.507Z,49.50
2019-05-30T06:28:24.192Z,48.60
2019-05-30T06:30:51.603Z,48.20
2019-05-30T06:33:18.579Z,48.20
2019-05-30T06:35:45.935Z,48.00
2019-05-30T06:38:12.332Z,47.90
2019-05-30T06:40:38.634Z,47.80
2019-05-30T06:43:04.960Z,47.60
2019-05-30T06:45:31.396Z,47.70
2019-05-30T06:47:58.687Z,47.50
2019-05-30T06:50:25.241Z,47.50
2019-05-30T06:52:51.607Z,47.40
2019-05-30T06:55:17.964Z,47.40
2019-05-30T06:57:44.391Z,47.30
2019-05-30T07:00:10.687Z,47.30
2019-05-30T07:02:37.229Z,47.30
2019-05-30T07:05:07.816Z,47.30
2019-05-30T07:07:34.851Z,47.50
2019-05-30T07:10:04.249Z,47.40
2019-05-30T07:12:31.171Z,47.50
2019-05-30T07:15:00.279Z,47.70
2019-05-30T07:17:27.451Z,48.10
2019-05-30T07:19:54.416Z,48.40
2019-05-30T07:22:20.715Z,48.40
2019-05-30T07:24:47.041Z,48.60
2019-05-30T07:27:13.363Z,48.70
2019-05-30T07:29:40.149Z,48.80
2019-05-30T07:32:07.780Z,48.80
2019-05-30T07:34:34.305Z,48.90
2019-05-30T07:37:01.061Z,49.00
2019-05-30T07:39:31.650Z,49.10
2019-05-30T07:42:05.673Z,49.10
2019-05-30T07:44:24.791Z,49.20
2019-05-30T07:46:51.127Z,49.10
2019-05-30T07:49:17.732Z,49.00
2019-05-30T07:51:44.212Z,48.30
2019-05-30T07:54:10.628Z,49.00
2019-05-30T07:56:37.978Z,49.60
2019-05-30T07:59:04.898Z,49.10
2019-05-30T08:01:36.071Z,48.50
2019-05-30T08:04:04.760Z,48.60
2019-05-30T08:06:35.704Z,48.70
2019-05-30T08:09:02.933Z,48.70
2019-05-30T08:11:32.914Z,48.60
2019-05-30T08:14:02.042Z,48.60
2019-05-30T08:16:37.467Z,48.30
2019-05-30T08:19:03.853Z,48.50
2019-05-30T08:21:34.191Z,48.40
2019-05-30T08:24:02.666Z,48.30
2019-05-30T08:26:32.070Z,48.40
2019-05-30T08:29:04.339Z,48.40
2019-05-30T08:31:34.595Z,48.50
2019-05-30T08:34:04.926Z,48.40
2019-05-30T08:36:31.353Z,48.70
2019-05-30T08:38:57.727Z,48.50
2019-05-30T08:41:24.537Z,48.50
2019-05-30T08:43:51.311Z,48.90
2019-05-30T08:46:17.732Z,48.80
2019-05-30T08:48:51.575Z,48.80
2019-05-30T08:51:18.337Z,49.20
2019-05-30T08:53:44.669Z,48.70
2019-05-30T08:56:11.064Z,49.00
2019-05-30T08:58:38.769Z,49.10
2019-05-30T09:01:05.347Z,49.40
2019-05-30T09:03:33.132Z,49.20
2019-05-30T09:06:04.041Z,49.40
2019-05-30T09:08:37.955Z,49.40
2019-05-30T09:11:02.430Z,49.90
2019-05-30T09:13:28.758Z,49.50
2019-05-30T09:15:55.185Z,49.50
2019-05-30T09:18:22.275Z,49.50
2019-05-30T09:20:48.688Z,49.50
2019-05-30T09:23:16.380Z,49.50
2019-05-30T09:25:43.625Z,49.50
2019-05-30T09:28:11.656Z,49.50
2019-05-30T09:30:39.876Z,49.50
2019-05-30T09:33:07.531Z,49.50
2019-05-30T09:35:34.433Z,49.60
2019-05-30T09:38:00.956Z,49.60
2019-05-30T09:40:27.849Z,49.70
2019-05-30T09:42:54.556Z,49.60
2019-05-30T09:45:21.267Z,49.60
2019-05-30T09:47:49.389Z,49.70
2019-05-30T09:50:16.268Z,49.70
2019-05-30T09:52:43.563Z,49.70
2019-05-30T09:55:10.472Z,49.80
2019-05-30T09:57:37.200Z,49.70
2019-05-30T10:00:09.216Z,50.40
2019-05-30T10:02:35.555Z,50.40
2019-05-30T10:05:03.892Z,51.30
2019-05-30T10:07:31.233Z,51.30
2019-05-30T10:09:59.785Z,52.20
2019-05-30T10:12:29.618Z,52.60
2019-05-30T10:14:57.126Z,52.80
2019-05-30T10:17:23.531Z,53.40
2019-05-30T10:19:50.989Z,53.30
2019-05-30T10:22:17.453Z,53.50
2019-05-30T10:24:44.611Z,53.30
2019-05-30T10:27:11.859Z,53.10
2019-05-30T10:29:38.175Z,52.60
2019-05-30T10:32:04.697Z,52.50
2019-05-30T10:34:30.991Z,53.00
2019-05-30T10:36:57.347Z,52.30
2019-05-30T10:39:23.646Z,52.40
2019-05-30T10:41:50.980Z,52.50
2019-05-30T10:44:17.634Z,52.50
2019-05-30T10:46:44.035Z,52.50
2019-05-30T10:49:10.588Z,52.60
2019-05-30T10:51:37.186Z,52.50
2019-05-30T10:54:03.678Z,52.90
2019-05-30T10:56:30.462Z,52.80
2019-05-30T10:58:57.316Z,52.30
2019-05-30T11:01:24.053Z,52.50
2019-05-30T11:03:50.578Z,52.40
2019-05-30T11:06:20.710Z,52.70
2019-05-30T11:08:47.922Z,52.80
2019-05-30T11:11:15.216Z,52.80
2019-05-30T11:13:41.752Z,53.00
2019-05-30T11:16:08.306Z,52.90
2019-05-30T11:18:34.971Z,52.80
2019-05-30T11:21:01.390Z,52.80
2019-05-30T11:23:27.953Z,52.80
2019-05-30T11:26:03.380Z,52.80
2019-05-30T11:28:29.735Z,52.60
2019-05-30T11:30:56.949Z,52.70
2019-05-30T11:33:23.922Z,52.60
2019-05-30T11:35:50.991Z,52.40
2019-05-30T11:38:19.509Z,52.40
2019-05-30T11:40:46.350Z,52.70
2019-05-30T11:43:13.282Z,52.30
2019-05-30T11:45:42.071Z,52.30
2019-05-30T11:48:09.086Z,52.30
2019-05-30T11:50:38.248Z,52.50
2019-05-30T11:53:06.926Z,52.60
2019-05-30T11:55:34.800Z,52.60
2019-05-30T11:58:02.556Z,52.50
2019-05-30T12:00:34.259Z,52.90
2019-05-30T12:03:00.797Z,52.30
2019-05-30T12:05:28.432Z,52.30
2019-05-30T12:07:54.928Z,52.30
2019-05-30T12:10:21.316Z,52.30
2019-05-30T12:13:01.639Z,52.20
2019-05-30T12:15:28.221Z,52.20
2019-05-30T12:17:55.311Z,52.10
2019-05-30T12:20:22.198Z,52.00
2019-05-30T12:22:49.233Z,51.90
2019-05-30T12:25:16.309Z,51.90
2019-05-30T12:27:44.452Z,51.90
2019-05-30T12:30:11.066Z,51.90
2019-05-30T12:32:38.105Z,51.80
2019-05-30T12:35:09.392Z,51.90
2019-05-30T12:37:52.966Z,51.80
2019-05-30T12:40:09.028Z,51.90
2019-05-30T12:42:35.850Z,51.90
2019-05-30T12:45:07.317Z,51.90
2019-05-30T12:47:35.675Z,51.90
2019-05-30T12:50:06.485Z,51.90
2019-05-30T12:52:32.908Z,51.90
2019-05-30T12:55:03.037Z,52.10
2019-05-30T12:57:28.217Z,52.00
2019-05-30T12:59:55.204Z,52.00
2019-05-30T13:02:21.839Z,52.00
2019-05-30T13:04:55.208Z,51.90
2019-05-30T13:07:23.071Z,52.00
2019-05-30T13:09:51.588Z,52.00
2019-05-30T13:12:18.298Z,52.00
2019-05-30T13:14:44.816Z,52.00
2019-05-30T13:17:14.577Z,52.10
2019-05-30T13:19:42.809Z,52.10
2019-05-30T13:22:12.374Z,52.10
2019-05-30T13:24:38.904Z,52.10
2019-05-30T13:27:06.012Z,52.20
2019-05-30T13:29:34.010Z,52.20
2019-05-30T13:32:07.017Z,52.10
2019-05-30T13:34:29.842Z,52.00
2019-05-30T13:36:56.956Z,52.10
2019-05-30T13:39:28.815Z,52.10
2019-05-30T13:41:57.426Z,52.10
2019-05-30T13:44:24.696Z,52.00
2019-05-30T13:46:53.442Z,52.10
2019-05-30T13:49:20.289Z,52.20
2019-05-30T13:51:48.640Z,48.60
2019-05-30T13:54:15.019Z,47.10
2019-05-30T13:56:41.463Z,46.90
2019-05-30T13:59:08.066Z,46.80
2019-05-30T14:01:34.759Z,47.10
2019-05-30T14:04:03.077Z,47.50
2019-05-30T14:06:29.545Z,47.10
2019-05-30T14:08:56.075Z,47.10
2019-05-30T14:11:22.923Z,47.20
2019-05-30T14:13:49.224Z,47.40
2019-05-30T14:16:15.775Z,48.00
2019-05-30T14:18:42.590Z,48.20
2019-05-30T14:21:09.384Z,48.30
2019-05-30T14:23:35.972Z,48.30
2019-05-30T14:26:03.251Z,48.70
2019-05-30T14:28:29.911Z,49.10
2019-05-30T14:30:56.462Z,49.50
2019-05-30T14:33:22.973Z,49.50
2019-05-30T14:35:49.397Z,49.70
2019-05-30T14:38:15.706Z,50.00
2019-05-30T14:40:42.256Z,50.30
2019-05-30T14:43:09.319Z,50.20
2019-05-30T14:45:35.695Z,50.00
2019-05-30T14:48:02.051Z,50.00
2019-05-30T14:50:28.503Z,50.30
2019-05-30T14:52:55.252Z,50.40
2019-05-30T14:55:23.124Z,50.80
2019-05-30T14:57:49.975Z,50.60
2019-05-30T15:00:17.803Z,50.40
2019-05-30T15:02:44.228Z,50.10
2019-05-30T15:05:11.539Z,49.70
2019-05-30T15:07:47.697Z,49.40
2019-05-30T15:10:14.149Z,49.30
2019-05-30T15:12:47.153Z,49.20
2019-05-30T15:15:16.746Z,49.10
2019-05-30T15:17:42.532Z,49.20
2019-05-30T15:20:10.329Z,48.90
2019-05-30T15:22:37.159Z,48.40
2019-05-30T15:25:07.963Z,48.50
2019-05-30T15:27:34.656Z,48.00
2019-05-30T15:30:04.321Z,48.20
2019-05-30T15:32:31.059Z,47.90
2019-05-30T15:34:58.311Z,47.90
2019-05-30T15:37:26.607Z,48.00
2019-05-30T15:39:53.304Z,47.60
2019-05-30T15:42:19.776Z,48.00
2019-05-30T15:44:46.169Z,47.10
2019-05-30T15:47:14.291Z,47.70
2019-05-30T15:49:40.826Z,47.50
2019-05-30T15:52:07.149Z,47.40
2019-05-30T15:54:33.469Z,46.90
2019-05-30T15:56:59.978Z,46.70
2019-05-30T15:59:26.310Z,46.40
2019-05-30T16:01:52.613Z,46.70
2019-05-30T16:04:20.561Z,47.20
2019-05-30T16:06:47.007Z,46.90
2019-05-30T16:09:13.314Z,46.80
2019-05-30T16:11:39.660Z,46.50
2019-05-30T16:14:05.991Z,46.40
2019-05-30T16:16:39.480Z,46.50
2019-05-30T16:19:15.033Z,46.40
2019-05-30T16:21:30.643Z,46.50
2019-05-30T16:23:56.975Z,46.50
2019-05-30T16:26:23.394Z,46.50
2019-05-30T16:28:49.976Z,46.20
2019-05-30T16:31:16.261Z,46.40
2019-05-30T16:33:42.576Z,46.50
2019-05-30T16:36:09.015Z,46.40
2019-05-30T16:38:35.783Z,46.50
2019-05-30T16:41:03.382Z,46.60
2019-05-30T16:43:30.330Z,46.50
2019-05-30T16:45:56.749Z,46.80
2019-05-30T16:48:23.099Z,46.90
2019-05-30T16:50:50.368Z,46.70
2019-05-30T16:53:17.065Z,46.80
2019-05-30T16:55:43.549Z,46.80
2019-05-30T16:58:09.976Z,47.40
2019-05-30T17:00:36.579Z,47.40
2019-05-30T17:03:03.713Z,47.30
2019-05-30T17:05:30.252Z,47.10
2019-05-30T17:07:56.666Z,47.10
2019-05-30T17:10:29.565Z,47.20
2019-05-30T17:12:51.229Z,47.20
2019-05-30T17:15:17.791Z,47.30
2019-05-30T17:17:44.472Z,47.40
2019-05-30T17:20:12.475Z,47.50
2019-05-30T17:22:38.796Z,47.70
2019-05-30T17:25:05.348Z,47.60
2019-05-30T17:27:32.069Z,47.60
2019-05-30T17:29:58.534Z,47.60
2019-05-30T17:32:25.863Z,47.70
2019-05-30T17:34:55.483Z,47.80
2019-05-30T17:37:22.996Z,47.10
2019-05-30T17:39:49.441Z,47.40
2019-05-30T17:42:29.072Z,48.20
2019-05-30T17:44:54.297Z,47.70
2019-05-30T17:47:21.717Z,47.50
2019-05-30T17:49:48.629Z,47.40
2019-05-30T17:52:21.696Z,47.40
2019-05-30T17:54:52.056Z,47.40
2019-05-30T17:57:21.946Z,47.30
2019-05-30T18:00:00.000Z,47.30
2019-05-30T18:02:31.413Z,47.40
2019-05-30T18:05:13.676Z,47.60
2019-05-30T18:07:44.226Z,47.60
2019-05-30T18:10:12.338Z,47.40
2019-05-30T18:12:44.229Z,48.00
2019-05-30T18:15:21.291Z,47.90
2019-05-30T18:17:51.081Z,47.90
2019-05-30T18:20:21.143Z,50.80
2019-05-30T18:22:53.870Z,51.80
2019-05-30T18:25:29.689Z,51.20
2019-05-30T18:28:01.397Z,50.70
2019-05-30T18:30:43.765Z,50.60
2019-05-30T18:33:15.046Z,50.50
2019-05-30T18:35:50.156Z,50.90
2019-05-30T18:38:20.100Z,51.10
2019-05-30T18:41:10.193Z,51.30
2019-05-30T18:43:28.828Z,50.40
2019-05-30T18:46:00.032Z,50.60
2019-05-30T18:48:29.296Z,50.70
2019-05-30T18:51:02.555Z,51.40
2019-05-30T18:53:32.466Z,51.60
2019-05-30T18:56:00.349Z,51.20
2019-05-30T18:58:27.105Z,50.70
2019-05-30T19:00:55.242Z,50.60
2019-05-30T19:03:24.474Z,50.40
2019-05-30T19:05:51.943Z,50.10
2019-05-30T19:08:20.136Z,49.90
2019-05-30T19:10:50.590Z,49.90
2019-05-30T19:13:17.264Z,49.70
2019-05-30T19:15:48.326Z,49.60
2019-05-30T19:18:14.705Z,49.60
2019-05-30T19:20:43.104Z,49.60
2019-05-30T19:23:09.668Z,49.50
2019-05-30T19:25:36.118Z,49.70
2019-05-30T19:28:02.556Z,49.90
2019-05-30T19:30:30.604Z,49.50
2019-05-30T19:33:02.098Z,50.10
2019-05-30T19:35:33.093Z,52.30
2019-05-30T19:38:00.189Z,53.10
2019-05-30T19:40:27.485Z,52.90
2019-05-30T19:42:56.135Z,52.30
2019-05-30T19:45:23.663Z,51.90
2019-05-30T19:47:52.083Z,51.50
2019-05-30T19:50:19.330Z,52.00
2019-05-30T19:52:47.116Z,51.90
2019-05-30T19:55:15.426Z,51.80
2019-05-30T19:57:43.058Z,51.60
2019-05-30T20:00:10.248Z,51.90
2019-05-30T20:02:36.683Z,52.10
2019-05-30T20:05:10.889Z,51.90
2019-05-30T20:07:38.763Z,51.50
2019-05-30T20:10:06.145Z,51.80
2019-05-30T20:12:32.687Z,51.40
2019-05-30T20:14:59.251Z,51.90
2019-05-30T20:17:25.556Z,52.40
2019-05-30T20:19:51.903Z,51.70
2019-05-30T20:22:18.296Z,51.40
2019-05-30T20:24:44.921Z,51.40
2019-05-30T20:27:11.485Z,51.50
2019-05-30T20:29:39.113Z,51.50
2019-05-30T20:32:05.932Z,51.60
2019-05-30T20:34:32.233Z,51.40
2019-05-30T20:36:58.542Z,51.60
2019-05-30T20:39:24.847Z,51.60
2019-05-30T20:41:53.854Z,51.60
2019-05-30T20:44:19.280Z,51.50
2019-05-30T20:46:45.580Z,51.70
2019-05-30T20:49:11.887Z,51.70
2019-05-30T20:51:39.466Z,51.80
2019-05-30T20:54:06.216Z,51.60
2019-05-30T20:56:33.088Z,51.60
2019-05-30T20:58:59.487Z,51.80
2019-05-30T21:01:25.808Z,51.70
2019-05-30T21:03:52.113Z,51.90
2019-05-30T21:06:18.528Z,51.80
2019-05-30T21:08:45.370Z,52.00
2019-05-30T21:11:11.781Z,51.90
2019-05-30T21:13:38.088Z,52.00
2019-05-30T21:16:04.587Z,52.10
2019-05-30T21:18:33.201Z,52.10
2019-05-30T21:20:59.569Z,52.00
2019-05-30T21:23:25.874Z,52.00
2019-05-30T21:25:52.167Z,52.20
2019-05-30T21:28:18.577Z,52.10
2019-05-30T21:30:45.385Z,52.20
2019-05-30T21:33:12.238Z,52.30
2019-05-30T21:35:39.736Z,52.20
2019-05-30T21:38:06.459Z,52.50
2019-05-30T21:40:32.991Z,52.30
2019-05-30T21:43:06.395Z,52.40
2019-05-30T21:45:27.430Z,52.50
2019-05-30T21:47:53.833Z,52.40
2019-05-30T21:50:20.130Z,52.40
2019-05-30T21:52:47.897Z,52.30
2019-05-30T21:55:15.055Z,52.40
2019-05-30T21:57:41.919Z,52.60
2019-05-30T22:00:10.197Z,52.70
2019-05-30T22:02:36.512Z,52.70
2019-05-30T22:05:04.224Z,52.80
2019-05-30T22:07:30.642Z,52.80
2019-05-30T22:09:57.182Z,52.80
2019-05-30T22:12:23.587Z,52.80
2019-05-30T22:14:49.966Z,53.00
2019-05-30T22:17:16.272Z,52.90
2019-05-30T22:19:43.731Z,52.90
2019-05-30T22:22:10.109Z,53.00
2019-05-30T22:24:36.520Z,52.90
2019-05-30T22:27:02.831Z,52.90
2019-05-30T22:29:29.271Z,53.20
2019-05-30T22:31:55.580Z,53.20
2019-05-30T22:34:22.011Z,53.20
2019-05-30T22:36:48.965Z,53.40
2019-05-30T22:39:15.732Z,53.50
2019-05-30T22:41:42.349Z,53.50
2019-05-30T22:44:08.915Z,53.70
2019-05-30T22:46:35.262Z,53.60
2019-05-30T22:49:01.738Z,53.40
2019-05-30T22:51:28.063Z,53.80
2019-05-30T22:53:54.594Z,53.80
2019-05-30T22:56:20.896Z,54.00
2019-05-30T22:58:50.192Z,53.80
2019-05-30T23:01:15.926Z,53.80
2019-05-30T23:03:42.220Z,54.00
2019-05-30T23:06:08.724Z,54.00
2019-05-30T23:08:35.227Z,53.90
2019-05-30T23:11:01.561Z,53.90
2019-05-30T23:13:39.627Z,54.00
2019-05-30T23:15:56.339Z,54.10
2019-05-30T23:18:22.979Z,54.20
2019-05-30T23:20:49.383Z,54.60
2019-05-30T23:23:15.975Z,54.20
2019-05-30T23:25:42.214Z,54.40
2019-05-30T23:28:08.653Z,54.50
2019-05-30T23:30:34.992Z,54.40
2019-05-30T23:33:01.302Z,54.50
2019-05-30T23:35:27.636Z,54.50
2019-05-30T23:37:54.700Z,54.50
2019-05-30T23:40:21.144Z,54.40
2019-05-30T23:42:47.561Z,54.40
2019-05-30T23:45:13.863Z,54.40
2019-05-30T23:47:40.163Z,54.40
2019-05-30T23:50:06.787Z,54.40
2019-05-30T23:52:33.300Z,54.40
2019-05-30T23:55:02.327Z,54.40
2019-05-30T23:57:27.890Z,54.40
2019-05-30T23:59:54.745Z,54.40
